Time;durP1;ratioP1;P1;durP2;ratioP2;P2;SDS_P1;SDS_P2;PMS_P1;PMS_P2;Temp;Humidity;BMP_temperature;BMP_pressure;BME280_temperature;BME280_humidity;BME280_pressure;Samples;Min_cycle;Max_cycle;Signal;HPM_P1;HPM_P2
2021/07/28 00:01:30;;;;;;;0.00;0.00;;;;;;;25.71;37.76;99177.41;5030723;28;20025;-75
2021/07/28 00:03:55;;;;;;;0.00;0.00;;;;;;;25.63;37.95;99168.31;5031604;28;20419;-75
2021/07/28 00:06:22;;;;;;;0.00;0.00;;;;;;;25.61;38.19;99173.41;5030365;28;20030;-75
2021/07/28 00:08:48;;;;;;;0.20;0.20;;;;;;;25.55;38.27;99172.94;5031462;28;20025;-74
2021/07/28 00:11:14;;;;;;;0.00;0.00;;;;;;;25.50;38.08;99167.00;5031173;28;20041;-74
2021/07/28 00:13:40;;;;;;;0.00;0.00;;;;;;;25.46;38.08;99164.22;5031143;28;20523;-74
2021/07/28 00:16:12;;;;;;;0.00;0.00;;;;;;;25.45;38.20;99170.06;5030328;28;20029;-76
2021/07/28 00:23:54;;;;;;;0.00;0.00;;;;;;;25.45;38.55;99157.19;5030897;28;20131;-75
2021/07/28 00:26:20;;;;;;;0.00;0.00;;;;;;;25.48;38.85;99158.38;5029640;28;20532;-75
2021/07/28 00:28:45;;;;;;;0.00;0.00;;;;;;;25.47;38.39;99159.53;5031376;28;20029;-75
2021/07/28 00:31:11;;;;;;;0.22;0.10;;;;;;;25.49;38.81;99165.44;5030901;28;20033;-75
2021/07/28 00:33:36;;;;;;;0.00;0.00;;;;;;;25.51;38.63;99166.63;5030891;28;20025;-75
2021/07/28 00:36:03;;;;;;;0.00;0.00;;;;;;;25.48;38.97;99152.91;5030231;28;20049;-75
2021/07/28 00:38:28;;;;;;;0.10;0.10;;;;;;;25.49;38.98;99168.97;5031018;28;20029;-76
2021/07/28 00:40:53;;;;;;;0.00;0.00;;;;;;;25.52;40.08;99170.97;5029399;28;20075;-75
2021/07/28 00:43:24;;;;;;;0.00;0.00;;;;;;;25.46;40.54;99166.94;5029765;28;20057;-75
2021/07/28 00:45:49;;;;;;;0.00;0.00;;;;;;;25.44;40.91;99165.75;5031249;28;20079;-75
2021/07/28 00:48:15;;;;;;;0.00;0.00;;;;;;;25.41;40.95;99175.50;5031009;28;20029;-75
2021/07/28 00:50:41;;;;;;;0.00;0.00;;;;;;;25.35;41.11;99174.22;5030850;28;20117;-75
2021/07/28 00:53:14;;;;;;;0.00;0.00;;;;;;;25.29;41.17;99173.75;5030698;28;20112;-75
2021/07/28 00:55:39;;;;;;;0.10;0.10;;;;;;;25.21;41.42;99177.59;5030622;28;20485;-75
2021/07/28 00:58:05;;;;;;;0.00;0.00;;;;;;;25.15;41.31;99173.59;5031091;28;20037;-75
2021/07/28 01:00:30;;;;;;;0.00;0.00;;;;;;;25.06;41.33;99176.59;5030499;28;20025;-75
2021/07/28 01:02:56;;;;;;;0.00;0.00;;;;;;;24.95;41.38;99168.28;5030568;28;20083;-75
2021/07/28 01:05:21;;;;;;;0.00;0.00;;;;;;;24.90;41.55;99172.09;5030395;28;20594;-76
2021/07/28 01:07:47;;;;;;;0.00;0.00;;;;;;;24.84;41.63;99168.13;5029733;28;20029;-76
2021/07/28 01:10:13;;;;;;;0.00;0.00;;;;;;;24.80;41.57;99170.00;5031251;28;20021;-76
2021/07/28 01:12:43;;;;;;;0.00;0.00;;;;;;;24.75;41.68;99173.84;5030925;28;20408;-76
2021/07/28 01:15:10;;;;;;;0.00;0.00;;;;;;;24.71;41.79;99169.50;5035034;28;20025;-75
2021/07/28 01:17:36;;;;;;;0.00;0.00;;;;;;;24.67;41.86;99168.63;5034372;28;20033;-75
2021/07/28 01:20:07;;;;;;;0.00;0.00;;;;;;;24.63;41.75;99168.53;5034176;28;20080;-75
2021/07/28 01:22:33;;;;;;;0.00;0.00;;;;;;;24.61;42.25;99165.41;5032860;28;20025;-77
2021/07/28 01:24:59;;;;;;;0.00;0.00;;;;;;;24.59;42.40;99167.72;5034183;28;20103;-77
2021/07/28 01:27:25;;;;;;;0.10;0.10;;;;;;;24.59;42.45;99167.72;5033420;28;20026;-74
2021/07/28 01:29:51;;;;;;;0.00;0.00;;;;;;;24.57;42.53;99175.50;5033111;28;20045;-74
2021/07/28 01:32:16;;;;;;;0.00;0.00;;;;;;;24.54;42.42;99171.53;5034909;28;20439;-76
2021/07/28 01:34:43;;;;;;;0.00;0.00;;;;;;;24.52;42.46;99175.81;5033326;28;20095;-76
2021/07/28 01:37:12;;;;;;;0.10;0.10;;;;;;;24.49;42.64;99176.56;5034419;28;20139;-76
2021/07/28 01:39:37;;;;;;;0.00;0.00;;;;;;;24.44;42.81;99172.19;5034047;28;20025;-77
2021/07/28 01:42:03;;;;;;;0.00;0.00;;;;;;;24.37;42.45;99172.84;5034485;28;20029;-76
2021/07/28 01:44:31;;;;;;;0.00;0.00;;;;;;;24.26;43.04;99171.88;5035813;28;20029;-78
2021/07/28 01:46:56;;;;;;;;;;;;;;;24.23;42.87;99189.00;5036224;28;20101;-78
2021/07/28 01:49:21;;;;;;;0.00;0.00;;;;;;;24.11;42.61;99181.78;5034355;28;20364;-79
2021/07/28 01:51:47;;;;;;;0.05;0.05;;;;;;;24.03;43.19;99191.00;5034352;28;20124;-79
2021/07/28 01:54:12;;;;;;;0.00;0.00;;;;;;;23.92;43.03;99193.50;5034297;28;20033;-78
2021/07/28 01:56:42;;;;;;;0.10;0.10;;;;;;;23.87;43.09;99189.13;5034324;28;20393;-79
2021/07/28 01:59:12;;;;;;;1.45;0.45;;;;;;;23.82;42.99;99189.44;5034162;28;20481;-79
2021/07/28 02:01:38;;;;;;;0.00;0.00;;;;;;;23.77;43.51;99185.06;5034066;28;20037;-79
2021/07/28 02:04:04;;;;;;;0.00;0.00;;;;;;;23.73;43.80;99184.22;5033878;28;20040;-79
2021/07/28 02:06:29;;;;;;;0.00;0.00;;;;;;;23.66;44.23;99182.13;5034764;28;20037;-79
2021/07/28 02:08:55;;;;;;;0.00;0.00;;;;;;;23.60;44.57;99175.38;5033980;28;20508;-78
2021/07/28 02:11:20;;;;;;;0.22;0.22;;;;;;;23.53;44.48;99175.22;5034176;28;20036;-77
2021/07/28 02:13:46;;;;;;;0.08;0.08;;;;;;;23.49;44.84;99177.13;5035038;28;20109;-76
2021/07/28 02:16:11;;;;;;;0.00;0.00;;;;;;;23.54;45.19;99181.50;5033433;28;20495;-76
2021/07/28 02:18:36;;;;;;;0.00;0.00;;;;;;;23.50;45.76;99178.69;5034805;28;20076;-77
2021/07/28 02:21:04;;;;;;;0.15;0.15;;;;;;;23.51;45.98;99174.81;5033456;28;20037;-77
2021/07/28 02:23:30;;;;;;;0.00;0.00;;;;;;;23.50;46.13;99181.44;5033618;28;20036;-77
2021/07/28 02:25:55;;;;;;;0.20;0.20;;;;;;;23.46;46.22;99175.91;5033085;28;20046;-77
2021/07/28 02:28:21;;;;;;;0.10;0.10;;;;;;;23.40;46.57;99177.34;5033539;28;20113;-78
2021/07/28 02:30:46;;;;;;;0.10;0.10;;;;;;;23.30;46.65;99183.34;5034828;28;20477;-76
2021/07/28 02:33:11;;;;;;;0.00;0.00;;;;;;;23.23;46.67;99183.19;5033271;28;20026;-75
2021/07/28 02:35:37;;;;;;;0.10;0.10;;;;;;;23.14;46.73;99189.66;5034686;28;20041;-76
2021/07/28 02:38:02;;;;;;;0.00;0.00;;;;;;;23.09;46.57;99189.13;5034758;28;20029;-76
2021/07/28 02:40:28;;;;;;;0.00;0.00;;;;;;;23.03;46.36;99183.94;5033896;28;20025;-77
2021/07/28 02:42:53;;;;;;;0.03;0.03;;;;;;;23.01;46.31;99183.50;5033543;28;20022;-77
2021/07/28 02:45:19;;;;;;;0.20;0.20;;;;;;;22.97;46.43;99190.03;5033128;28;20455;-77
2021/07/28 02:47:44;;;;;;;0.03;0.03;;;;;;;22.93;46.28;99184.50;5032919;28;20400;-77
2021/07/28 02:50:11;;;;;;;0.00;0.00;;;;;;;22.92;46.60;99182.91;5032039;28;20469;-77
2021/07/28 02:52:36;;;;;;;0.00;0.00;;;;;;;22.90;46.81;99173.50;5031415;28;20037;-76
2021/07/28 02:55:05;;;;;;;0.00;0.00;;;;;;;22.91;47.34;99184.06;5032975;28;20021;-74
2021/07/28 02:57:32;;;;;;;0.10;0.10;;;;;;;22.91;47.00;99178.63;5032683;28;20374;-77
2021/07/28 02:59:58;;;;;;;0.00;0.00;;;;;;;22.88;47.14;99173.88;5032469;28;20044;-77
2021/07/28 03:02:23;;;;;;;0.05;0.05;;;;;;;22.89;47.18;99175.44;5032903;28;20030;-77
2021/07/28 03:04:49;;;;;;;0.10;0.10;;;;;;;22.89;47.19;99170.00;5032702;28;20109;-77
2021/07/28 03:07:14;;;;;;;0.00;0.00;;;;;;;22.92;47.26;99180.19;5031439;28;20420;-77
2021/07/28 03:09:39;;;;;;;0.00;0.00;;;;;;;22.95;47.11;99184.13;5032854;28;20061;-75
2021/07/28 03:12:05;;;;;;;0.00;0.00;;;;;;;22.93;46.96;99181.75;5031664;28;20051;-75
2021/07/28 03:14:30;;;;;;;0.00;0.00;;;;;;;22.94;46.98;99180.63;5032861;28;20479;-76
2021/07/28 03:16:56;;;;;;;0.00;0.00;;;;;;;22.99;46.68;99180.34;5032136;28;20028;-76
2021/07/28 03:19:21;;;;;;;0.10;0.10;;;;;;;23.02;46.94;99187.00;5032001;28;20025;-76
2021/07/28 03:21:50;;;;;;;0.10;0.10;;;;;;;23.02;47.01;99178.84;5030579;28;20030;-76
2021/07/28 03:24:18;;;;;;;0.10;0.10;;;;;;;23.06;46.93;99184.38;5032436;28;20034;-76
2021/07/28 03:26:45;;;;;;;0.10;0.10;;;;;;;23.12;46.97;99188.41;5031541;28;20048;-77
2021/07/28 03:29:11;;;;;;;0.05;0.05;;;;;;;23.17;46.66;99194.41;5032384;28;20401;-80
2021/07/28 03:31:36;;;;;;;0.05;0.05;;;;;;;23.25;46.74;99194.56;5032579;28;20033;-77
2021/07/28 03:34:01;;;;;;;0.00;0.00;;;;;;;23.31;46.66;99193.94;5030934;28;20386;-78
2021/07/28 03:36:27;;;;;;;0.10;0.10;;;;;;;23.38;46.66;99200.69;5031962;28;20029;-77
2021/07/28 03:38:52;;;;;;;0.00;0.00;;;;;;;23.46;46.49;99186.00;5030507;28;20029;-77
2021/07/28 03:41:18;;;;;;;0.10;0.10;;;;;;;23.55;46.52;99189.31;5032233;28;20116;-78
2021/07/28 03:43:43;;;;;;;0.03;0.03;;;;;;;23.69;46.38;99183.34;5030532;28;20026;-78
2021/07/28 03:46:08;;;;;;;0.00;0.00;;;;;;;23.86;46.00;99184.81;5031450;28;20113;-78
2021/07/28 03:48:34;;;;;;;0.10;0.10;;;;;;;24.03;45.71;99189.06;5029899;28;20025;-78
2021/07/28 03:51:00;;;;;;;0.10;0.10;;;;;;;24.21;45.22;99180.41;5029528;28;20064;-78
2021/07/28 03:53:26;;;;;;;0.00;0.00;;;;;;;24.43;45.03;99187.78;5030041;28;20029;-78
2021/07/28 03:55:52;;;;;;;0.10;0.10;;;;;;;24.62;44.60;99186.13;5030383;28;20477;-77
2021/07/28 03:58:18;;;;;;;0.00;0.00;;;;;;;24.87;44.01;99191.97;5029951;28;20043;-77
2021/07/28 04:00:43;;;;;;;0.00;0.00;;;;;;;25.14;43.50;99189.22;5031261;28;20033;-77
2021/07/28 04:03:09;;;;;;;0.10;0.10;;;;;;;25.40;43.21;99190.34;5030351;28;20033;-77
2021/07/28 04:05:34;;;;;;;0.00;0.00;;;;;;;25.68;42.41;99194.59;5031875;28;20116;-79
2021/07/28 04:08:01;;;;;;;0.10;0.10;;;;;;;25.92;41.74;99195.25;5029918;28;20029;-91
2021/07/28 04:10:27;;;;;;;0.00;0.00;;;;;;;26.20;41.52;99192.78;5030179;28;20034;-77
2021/07/28 04:12:53;;;;;;;0.00;0.00;;;;;;;26.49;41.08;99184.78;5029977;28;20280;-80
2021/07/28 04:15:19;;;;;;;0.00;0.00;;;;;;;26.80;40.31;99188.16;5030383;28;20021;-79
2021/07/28 04:17:44;;;;;;;0.00;0.00;;;;;;;27.14;39.95;99185.22;5030760;28;20033;-77
2021/07/28 04:20:10;;;;;;;0.00;0.00;;;;;;;27.44;38.76;99186.94;5030949;28;20117;-80
2021/07/28 04:22:36;;;;;;;0.00;0.00;;;;;;;27.76;38.60;99191.75;5031077;28;20034;-78
2021/07/28 04:25:04;;;;;;;0.00;0.00;;;;;;;28.11;38.02;99189.47;5029594;28;20057;-79
2021/07/28 04:27:30;;;;;;;0.00;0.00;;;;;;;28.46;37.20;99196.16;5031549;28;20025;-77
2021/07/28 04:29:56;;;;;;;0.00;0.00;;;;;;;28.77;36.52;99193.78;5029945;28;20198;-77
2021/07/28 04:32:22;;;;;;;0.00;0.00;;;;;;;29.09;35.96;99195.69;5030058;28;20113;-78
2021/07/28 04:34:48;;;;;;;0.00;0.00;;;;;;;29.42;35.41;99190.06;5029828;28;20423;-78
2021/07/28 04:37:13;;;;;;;0.00;0.00;;;;;;;29.76;34.92;99175.72;5029927;28;20440;-78
2021/07/28 04:39:38;;;;;;;0.10;0.10;;;;;;;30.11;34.27;99177.47;5031216;28;20057;-78
2021/07/28 04:42:04;;;;;;;0.00;0.00;;;;;;;30.44;33.76;99180.72;5030861;28;20036;-78
2021/07/28 04:44:30;;;;;;;0.00;0.00;;;;;;;30.75;33.23;99178.13;5029730;28;20052;-78
2021/07/28 04:46:56;;;;;;;0.00;0.00;;;;;;;31.09;32.45;99184.88;5030759;28;20084;-78
2021/07/28 04:49:22;;;;;;;0.00;0.00;;;;;;;31.41;32.22;99181.72;5035234;28;20021;-78
2021/07/28 04:51:47;;;;;;;0.00;0.00;;;;;;;31.71;31.97;99187.66;5036255;28;20378;-79
2021/07/28 04:54:13;;;;;;;0.00;0.00;;;;;;;31.98;31.26;99182.09;5037801;28;20031;-79
2021/07/28 04:56:38;;;;;;;0.00;0.00;;;;;;;32.29;30.75;99184.03;5036459;28;20029;-78
2021/07/28 04:59:04;;;;;;;0.00;0.00;;;;;;;32.53;30.41;99184.81;5036003;28;20034;-78
2021/07/28 05:01:29;;;;;;;0.00;0.00;;;;;;;32.79;29.93;99185.16;5037499;28;20393;-79
2021/07/28 05:03:55;;;;;;;0.00;0.00;;;;;;;33.04;29.79;99177.16;5037280;28;20116;-78
2021/07/28 05:06:20;;;;;;;0.00;0.00;;;;;;;33.28;29.40;99185.38;5036140;28;20029;-78
2021/07/28 05:08:45;;;;;;;0.10;0.10;;;;;;;33.49;28.72;99175.06;5035911;28;20115;-78
2021/07/28 05:11:11;;;;;;;0.00;0.00;;;;;;;33.59;28.91;99182.34;5036261;28;20029;-78
2021/07/28 05:13:37;;;;;;;0.13;0.13;;;;;;;33.77;28.65;99175.66;5036149;28;20034;-78
2021/07/28 05:16:02;;;;;;;0.08;0.08;;;;;;;34.01;28.68;99179.06;5035972;28;20064;-79
2021/07/28 05:18:28;;;;;;;0.00;0.00;;;;;;;34.17;28.56;99169.97;5037074;28;20037;-79
2021/07/28 05:20:53;;;;;;;0.10;0.10;;;;;;;34.36;27.88;99171.06;5036811;28;20022;-79
2021/07/28 05:23:18;;;;;;;0.10;0.10;;;;;;;34.57;27.86;99175.31;5037333;28;20033;-79
2021/07/28 05:25:44;;;;;;;0.00;0.00;;;;;;;34.76;27.49;99175.59;5035734;28;20053;-79
2021/07/28 05:28:10;;;;;;;0.13;0.13;;;;;;;34.89;27.20;99172.91;5037378;28;20477;-79
2021/07/28 05:30:35;;;;;;;0.00;0.00;;;;;;;35.07;27.48;99177.94;5036032;28;20120;-79
2021/07/28 05:33:01;;;;;;;0.10;0.10;;;;;;;35.26;26.86;99173.44;5035486;28;20057;-80
2021/07/28 05:35:27;;;;;;;0.10;0.10;;;;;;;35.41;26.82;99173.81;5036049;28;20491;-78
2021/07/28 05:37:57;;;;;;;0.10;0.10;;;;;;;35.42;27.06;99172.59;5037003;28;20548;-78
2021/07/28 05:40:23;;;;;;;0.00;0.00;;;;;;;35.53;26.78;99175.81;5037608;28;20120;-78
2021/07/28 05:42:48;;;;;;;0.00;0.00;;;;;;;35.72;26.55;99170.50;5036659;28;20105;-78
2021/07/28 05:45:13;;;;;;;0.00;0.00;;;;;;;35.95;26.21;99172.16;5036857;28;20077;-78
2021/07/28 05:47:39;;;;;;;0.00;0.00;;;;;;;36.19;26.13;99180.13;5036979;28;20025;-78
2021/07/28 05:50:05;;;;;;;0.10;0.10;;;;;;;36.41;26.15;99171.84;5035760;28;20041;-78
2021/07/28 05:52:30;;;;;;;0.10;0.10;;;;;;;36.61;25.91;99174.34;5037457;28;20026;-79
2021/07/28 05:54:55;;;;;;;0.10;0.10;;;;;;;36.78;25.58;99172.16;5037458;28;20447;-79
2021/07/28 05:57:21;;;;;;;0.00;0.00;;;;;;;36.90;25.49;99175.38;5037146;28;20069;-78
2021/07/28 05:59:46;;;;;;;0.10;0.10;;;;;;;37.03;25.23;99173.28;5033434;28;20455;-79
2021/07/28 06:02:12;;;;;;;0.00;0.00;;;;;;;37.23;25.20;99177.72;5033606;28;20021;-79
2021/07/28 06:04:37;;;;;;;0.10;0.10;;;;;;;37.40;24.70;99169.94;5033939;28;20566;-79
2021/07/28 06:07:03;;;;;;;0.08;0.08;;;;;;;37.53;24.57;99162.25;5033976;28;20030;-78
2021/07/28 06:09:28;;;;;;;0.20;0.20;;;;;;;37.56;24.30;99171.72;5032430;28;20029;-79
2021/07/28 06:11:53;;;;;;;0.10;0.10;;;;;;;37.57;24.39;99170.50;5033703;28;20078;-79
2021/07/28 06:14:19;;;;;;;0.10;0.10;;;;;;;37.61;23.91;99162.75;5032500;28;20167;-79
2021/07/28 06:16:44;;;;;;;0.05;0.05;;;;;;;37.64;24.44;99168.19;5033660;28;20404;-79
2021/07/28 06:19:10;;;;;;;0.00;0.00;;;;;;;37.69;24.26;99168.84;5032399;28;20057;-79
2021/07/28 06:21:35;;;;;;;0.08;0.08;;;;;;;37.80;23.86;99169.16;5033845;28;20496;-79
2021/07/28 06:24:01;;;;;;;0.00;0.00;;;;;;;37.81;23.42;99165.91;5033179;28;20038;-79
2021/07/28 06:26:27;;;;;;;0.00;0.00;;;;;;;37.76;23.29;99174.91;5032380;28;20046;-79
2021/07/28 06:28:52;;;;;;;0.00;0.00;;;;;;;37.83;23.10;99170.28;5033365;28;20624;-79
2021/07/28 06:31:18;;;;;;;0.43;0.35;;;;;;;37.61;23.23;99159.94;5032351;28;20021;-79
2021/07/28 06:33:43;;;;;;;0.13;0.13;;;;;;;37.64;23.09;99170.22;5032326;28;20503;-79
2021/07/28 06:36:09;;;;;;;0.10;0.10;;;;;;;37.59;23.11;99168.78;5031790;28;20087;-80
2021/07/28 06:38:34;;;;;;;0.10;0.10;;;;;;;37.47;23.28;99161.31;5032005;28;20477;-79
2021/07/28 06:41:00;;;;;;;0.10;0.10;;;;;;;37.43;23.48;99158.66;5031822;28;20064;-79
2021/07/28 06:43:25;;;;;;;0.10;0.10;;;;;;;37.15;23.33;99152.91;5031872;28;20460;-79
2021/07/28 06:45:57;;;;;;;0.08;0.08;;;;;;;36.93;24.26;99163.31;5031298;28;20451;-78
2021/07/28 06:48:22;;;;;;;0.03;0.03;;;;;;;36.81;23.95;99162.88;5032913;28;20067;-80
2021/07/28 06:50:47;;;;;;;0.20;0.20;;;;;;;36.75;24.31;99166.72;5031770;28;20034;-80
2021/07/28 06:53:13;;;;;;;0.00;0.00;;;;;;;36.68;24.42;99162.97;5031416;28;20067;-79
2021/07/28 06:55:38;;;;;;;0.10;0.10;;;;;;;36.44;24.76;99153.47;5031648;28;20028;-79
2021/07/28 06:58:04;;;;;;;0.10;0.10;;;;;;;36.26;25.16;99157.63;5032397;28;20033;-80
2021/07/28 07:00:29;;;;;;;0.20;0.20;;;;;;;36.18;25.22;99159.88;5031562;28;20024;-79
2021/07/28 07:02:58;;;;;;;0.10;0.10;;;;;;;36.03;25.33;99156.78;5031109;28;20087;-79
2021/07/28 07:05:24;;;;;;;0.10;0.10;;;;;;;35.86;25.86;99153.31;5031430;28;20033;-79
2021/07/28 07:07:50;;;;;;;0.10;0.10;;;;;;;35.67;25.40;99155.13;5032709;28;20159;-80
2021/07/28 07:10:16;;;;;;;0.00;0.00;;;;;;;35.53;25.75;99153.56;5032595;28;20029;-80
2021/07/28 07:12:41;;;;;;;0.40;0.40;;;;;;;35.36;26.52;99154.88;5031068;28;20416;-80
2021/07/28 07:15:07;;;;;;;0.10;0.10;;;;;;;35.30;26.88;99151.84;5031290;28;20025;-79
2021/07/28 07:17:33;;;;;;;0.00;0.00;;;;;;;35.04;27.39;99151.03;5032411;28;20166;-79
2021/07/28 07:19:58;;;;;;;0.20;0.20;;;;;;;34.98;27.54;99155.59;5031786;28;20022;-79
2021/07/28 07:22:24;;;;;;;0.10;0.10;;;;;;;34.76;27.07;99147.81;5032074;28;20473;-79
2021/07/28 07:24:49;;;;;;;0.10;0.10;;;;;;;34.63;27.36;99154.13;5030539;28;20042;-79
2021/07/28 07:27:14;;;;;;;0.20;0.20;;;;;;;34.59;27.10;99149.88;5030730;28;20029;-79
2021/07/28 07:29:40;;;;;;;0.00;0.00;;;;;;;34.50;27.14;99155.25;5032188;28;20044;-78
2021/07/28 07:32:06;;;;;;;0.20;0.20;;;;;;;34.28;27.64;99147.50;5031819;28;20481;-79
2021/07/28 07:34:32;;;;;;;0.05;0.05;;;;;;;34.27;27.77;99151.47;5032315;28;20040;-80
2021/07/28 07:36:57;;;;;;;0.00;0.00;;;;;;;34.25;28.11;99145.56;5030419;28;20029;-78
2021/07/28 07:39:23;;;;;;;0.20;0.05;;;;;;;34.19;28.07;99148.09;5030559;28;20031;-80
2021/07/28 07:41:48;;;;;;;0.13;0.13;;;;;;;34.09;28.71;99138.81;5031982;28;20179;-80
2021/07/28 07:44:14;;;;;;;0.10;0.10;;;;;;;34.14;28.29;99151.38;5030282;28;20037;-80
2021/07/28 07:46:39;;;;;;;0.10;0.10;;;;;;;34.10;28.36;99153.50;5030223;28;20129;-80
2021/07/28 07:49:04;;;;;;;0.20;0.20;;;;;;;34.14;27.81;99146.63;5030348;28;20036;-80
2021/07/28 07:51:31;;;;;;;0.20;0.20;;;;;;;34.14;28.21;99143.06;5031762;28;20022;-80
2021/07/28 07:53:57;;;;;;;0.00;0.00;;;;;;;34.16;27.72;99140.66;5031461;28;20060;-81
2021/07/28 07:56:22;;;;;;;0.10;0.10;;;;;;;34.09;28.09;99141.59;5030670;28;20104;-80
2021/07/28 07:58:48;;;;;;;0.32;0.25;;;;;;;34.04;27.96;99146.91;5030728;28;20134;-80
2021/07/28 08:01:13;;;;;;;0.38;0.38;;;;;;;34.09;28.24;99146.38;5031541;28;20057;-80
2021/07/28 08:03:40;;;;;;;0.25;0.13;;;;;;;34.02;27.98;99138.22;5030373;28;20057;-80
2021/07/28 08:06:08;;;;;;;0.10;0.10;;;;;;;33.92;28.27;99137.28;5031561;28;20040;-80
2021/07/28 08:08:33;;;;;;;0.10;0.10;;;;;;;33.92;27.97;99131.72;5030606;28;20489;-80
2021/07/28 08:11:00;;;;;;;0.10;0.10;;;;;;;33.77;27.69;99139.59;5030102;28;20075;-80
2021/07/28 08:13:26;;;;;;;0.30;0.30;;;;;;;33.70;28.73;99136.97;5030393;28;20105;-80
2021/07/28 08:15:52;;;;;;;0.00;0.00;;;;;;;33.71;28.14;99139.31;5032017;28;20064;-80
2021/07/28 08:18:19;;;;;;;0.20;0.20;;;;;;;33.58;28.64;99127.34;5029938;28;20060;-80
2021/07/28 08:20:44;;;;;;;0.10;0.10;;;;;;;33.54;28.61;99129.44;5030436;28;20075;-80
2021/07/28 08:23:10;;;;;;;0.20;0.20;;;;;;;33.53;28.04;99125.84;5030533;28;20029;-80
2021/07/28 08:25:35;;;;;;;1.98;0.57;;;;;;;33.50;28.28;99130.28;5031068;28;20136;-80
2021/07/28 08:28:01;;;;;;;0.03;0.03;;;;;;;33.55;27.96;99125.44;5031550;28;20037;-80
2021/07/28 08:30:26;;;;;;;0.20;0.20;;;;;;;33.61;28.00;99121.72;5031828;28;20350;-80
2021/07/28 08:32:52;;;;;;;0.00;0.00;;;;;;;33.68;27.40;99124.31;5030400;28;20029;-80
2021/07/28 08:35:17;;;;;;;0.10;0.10;;;;;;;33.73;27.69;99123.03;5029591;28;20036;-80
2021/07/28 08:37:43;;;;;;;0.40;0.40;;;;;;;33.75;27.85;99115.06;5029837;28;20017;-80
2021/07/28 08:40:08;;;;;;;0.20;0.20;;;;;;;33.77;27.90;99120.19;5029878;28;20033;-79
2021/07/28 08:42:34;;;;;;;0.30;0.30;;;;;;;33.74;27.10;99110.72;5030080;28;20025;-81
2021/07/28 08:45:01;;;;;;;0.30;0.20;;;;;;;33.66;27.70;99109.34;5030719;28;20030;-81
2021/07/28 08:47:27;;;;;;;0.28;0.20;;;;;;;33.61;27.81;99107.84;5031415;28;20033;-81
2021/07/28 08:49:52;;;;;;;0.22;0.22;;;;;;;33.58;27.71;99105.97;5031289;28;20504;-80
2021/07/28 08:52:19;;;;;;;0.20;0.20;;;;;;;33.54;28.17;99102.47;5029581;28;20037;-80
2021/07/28 08:54:44;;;;;;;0.33;0.33;;;;;;;33.55;28.52;99101.25;5029870;28;20029;-80
2021/07/28 08:57:11;;;;;;;0.32;0.32;;;;;;;33.59;28.19;99103.97;5031074;28;20036;-79
2021/07/28 08:59:36;;;;;;;0.10;0.10;;;;;;;33.67;28.49;99094.25;5030982;28;20397;-80
2021/07/28 09:02:03;;;;;;;0.00;0.00;;;;;;;33.69;27.37;99089.03;5031139;28;20037;-80
2021/07/28 09:04:29;;;;;;;0.20;0.20;;;;;;;33.68;26.75;99084.75;5029958;28;20522;-79
2021/07/28 09:06:55;;;;;;;0.00;0.00;;;;;;;33.70;26.90;99082.28;5031100;28;20347;-80
2021/07/28 09:09:21;;;;;;;0.10;0.10;;;;;;;33.69;26.14;99089.03;5031197;28;20040;-80
2021/07/28 09:11:57;;;;;;;0.40;0.40;;;;;;;33.68;25.96;99082.72;5029834;28;20401;-81
2021/07/28 09:14:37;;;;;;;0.30;0.30;;;;;;;33.67;25.12;99072.84;5031303;28;20382;-80
2021/07/28 09:17:18;;;;;;;0.13;0.13;;;;;;;33.73;25.08;99081.44;5030877;28;20022;-81
2021/07/28 09:19:48;;;;;;;0.00;0.00;;;;;;;33.76;25.71;99077.78;5029441;28;20029;-80
2021/07/28 09:22:16;;;;;;;0.17;0.17;;;;;;;33.79;25.00;99073.34;5030836;28;20495;-81
2021/07/28 09:24:44;;;;;;;0.43;0.43;;;;;;;33.77;25.60;99078.56;5029465;28;20060;-81
2021/07/28 09:27:29;;;;;;;;;;;;;;;33.81;25.10;99070.94;5029902;28;20319;-81
2021/07/28 09:29:54;;;;;;;0.20;0.20;;;;;;;33.75;24.83;99070.69;5029428;28;19972;-80
2021/07/28 09:32:20;;;;;;;0.08;0.08;;;;;;;33.76;25.50;99066.69;5030501;28;20037;-80
2021/07/28 09:34:45;;;;;;;0.10;0.10;;;;;;;33.82;25.32;99061.41;5032876;28;20400;-80
2021/07/28 09:37:14;;;;;;;0.00;0.00;;;;;;;33.89;24.91;99064.03;5033008;28;20030;-78
2021/07/28 09:39:49;;;;;;;0.15;0.15;;;;;;;33.97;25.29;99059.06;5032825;28;20082;-79
2021/07/28 09:42:17;;;;;;;0.10;0.10;;;;;;;34.04;24.87;99058.88;5032764;28;20026;-80
2021/07/28 09:44:46;;;;;;;;;;;;;;;34.11;25.04;99061.47;5034974;28;20044;-80
2021/07/28 09:47:23;;;;;;;0.17;0.17;;;;;;;34.14;25.36;99062.59;5032644;28;19940;-81
2021/07/28 09:49:50;;;;;;;0.00;0.00;;;;;;;34.17;25.13;99053.41;5033142;28;20514;-82
2021/07/28 09:52:17;;;;;;;;;;;;;;;34.22;25.31;99047.31;5033300;28;20022;-81
2021/07/28 09:54:42;;;;;;;0.20;0.20;;;;;;;34.20;25.10;99046.19;5033187;28;19918;-81
2021/07/28 09:57:11;;;;;;;0.10;0.10;;;;;;;34.16;25.40;99047.06;5032910;28;20408;-80
2021/07/28 09:59:39;;;;;;;0.40;0.40;;;;;;;34.21;25.27;99042.22;5032780;28;20030;-80
2021/07/28 10:02:05;;;;;;;0.05;0.05;;;;;;;34.27;25.53;99034.91;5032627;28;20033;-80
2021/07/28 10:04:32;;;;;;;0.10;0.10;;;;;;;34.29;25.20;99027.69;5032643;28;20037;-80
2021/07/28 10:07:00;;;;;;;0.20;0.20;;;;;;;34.38;25.53;99029.84;5032655;28;20025;-80
2021/07/28 10:09:36;;;;;;;0.00;0.00;;;;;;;34.48;25.65;99025.22;5032607;28;20064;-80
2021/07/28 10:12:02;;;;;;;0.20;0.20;;;;;;;34.57;25.15;99027.34;5032514;28;20036;-81
2021/07/28 10:14:28;;;;;;;0.55;0.55;;;;;;;34.66;25.18;99023.94;5033647;28;20029;-80
2021/07/28 10:16:54;;;;;;;0.10;0.10;;;;;;;34.72;24.98;99025.72;5033759;28;20472;-80
2021/07/28 10:19:21;;;;;;;0.10;0.10;;;;;;;34.77;24.95;99018.84;5033697;28;20102;-80
2021/07/28 10:21:47;;;;;;;0.10;0.10;;;;;;;34.84;24.71;99017.84;5032615;28;20025;-80
2021/07/28 10:24:12;;;;;;;0.10;0.10;;;;;;;34.90;24.14;99018.88;5031855;28;20030;-80
2021/07/28 10:26:40;;;;;;;0.05;0.05;;;;;;;34.93;24.54;99015.97;5033783;28;20052;-80
2021/07/28 10:29:08;;;;;;;0.10;0.10;;;;;;;34.93;24.44;99006.88;5032900;28;20032;-81
2021/07/28 10:31:48;;;;;;;0.00;0.00;;;;;;;34.99;24.46;98999.53;5032244;28;20021;-80
2021/07/28 10:34:34;;;;;;;0.10;0.10;;;;;;;35.05;24.62;99006.09;5031979;28;20021;-80
2021/07/28 10:37:05;;;;;;;0.10;0.10;;;;;;;35.12;25.01;98999.56;5033670;28;20116;-80
2021/07/28 10:39:42;;;;;;;0.10;0.10;;;;;;;35.18;24.64;98988.63;5032114;28;20025;-80
2021/07/28 10:42:18;;;;;;;;;;;;;;;35.27;24.51;98992.28;5032212;28;20025;-80
2021/07/28 10:45:12;;;;;;;0.08;0.08;;;;;;;35.38;24.49;98985.66;5032032;28;19967;-80
2021/07/28 10:47:45;;;;;;;0.25;0.25;;;;;;;35.45;23.97;98985.41;5031439;28;20026;-80
2021/07/28 10:50:25;;;;;;;0.00;0.00;;;;;;;35.50;23.61;98982.06;5031526;28;20040;-80
2021/07/28 10:52:54;;;;;;;0.10;0.10;;;;;;;35.50;23.28;98979.28;5033289;28;20029;-82
2021/07/28 10:55:27;;;;;;;0.10;0.10;;;;;;;35.52;23.54;98971.28;5031658;28;20037;-81
2021/07/28 10:57:52;;;;;;;0.13;0.13;;;;;;;35.52;23.35;98967.69;5031733;28;20030;-80
2021/07/28 11:00:39;;;;;;;0.10;0.10;;;;;;;35.53;23.55;98972.03;5031378;28;20041;-80
2021/07/28 11:03:07;;;;;;;0.10;0.10;;;;;;;35.59;23.39;98975.81;5031441;28;20476;-80
2021/07/28 11:05:37;;;;;;;0.10;0.10;;;;;;;35.61;23.29;98969.78;5031549;28;20033;-80
2021/07/28 11:08:05;;;;;;;0.10;0.10;;;;;;;35.69;23.33;98965.53;5031369;28;20148;-80
2021/07/28 11:10:57;;;;;;;0.00;0.00;;;;;;;35.74;23.09;98970.53;5033296;28;20116;-80
2021/07/28 11:13:28;;;;;;;0.10;0.10;;;;;;;35.77;23.05;98966.06;5031407;28;20025;-80
2021/07/28 11:16:02;;;;;;;0.10;0.10;;;;;;;35.78;23.44;98962.84;5032970;28;20029;-80
2021/07/28 11:18:34;;;;;;;0.20;0.20;;;;;;;35.84;23.68;98955.47;5032313;28;20021;-80
2021/07/28 11:21:13;;;;;;;0.10;0.10;;;;;;;35.89;23.25;98957.69;5032552;28;20029;-80
2021/07/28 11:23:47;;;;;;;0.43;0.35;;;;;;;35.94;22.66;98961.13;5031251;28;20451;-80
2021/07/28 11:26:24;;;;;;;0.00;0.00;;;;;;;35.96;22.73;98955.88;5030616;28;20516;-80
2021/07/28 11:28:52;;;;;;;0.10;0.10;;;;;;;35.98;22.19;98956.22;5032340;28;20489;-80
2021/07/28 11:31:32;;;;;;;0.00;0.00;;;;;;;36.00;22.59;98956.53;5030749;28;20431;-81
2021/07/28 11:34:07;;;;;;;0.17;0.17;;;;;;;35.99;22.40;98949.44;5031052;28;20025;-80
2021/07/28 11:36:33;;;;;;;0.08;0.08;;;;;;;36.02;22.66;98942.94;5030998;28;20167;-79
2021/07/28 11:39:06;;;;;;;0.00;0.00;;;;;;;36.04;23.04;98946.81;5032640;28;20108;-80